createdAt,value
2019-01-18T00:00:54.940Z,3.23
2019-01-18T00:03:28.083Z,2.80
2019-01-18T00:06:01.474Z,3.47
2019-01-18T00:08:34.588Z,2.67
2019-01-18T00:11:07.484Z,2.60
2019-01-18T00:13:40.616Z,2.73
2019-01-18T00:16:13.452Z,3.10
2019-01-18T00:18:46.484Z,2.90
2019-01-18T00:21:19.536Z,4.67
2019-01-18T00:24:00.964Z,3.70
2019-01-18T00:26:36.168Z,3.50
2019-01-18T00:29:09.130Z,3.70
2019-01-18T00:31:42.629Z,2.40
2019-01-18T00:34:15.615Z,2.20
2019-01-18T00:36:48.514Z,3.67
2019-01-18T00:39:21.415Z,2.80
2019-01-18T00:41:54.310Z,3.13
2019-01-18T00:44:27.454Z,3.37
2019-01-18T00:47:00.338Z,4.30
2019-01-18T00:49:33.274Z,4.63
2019-01-18T00:52:06.422Z,3.67
2019-01-18T00:54:39.359Z,4.10
2019-01-18T00:57:12.531Z,4.70
2019-01-18T00:59:45.896Z,4.60
2019-01-18T01:02:29.889Z,3.57
2019-01-18T01:05:14.618Z,3.80
2019-01-18T01:07:50.275Z,4.10
2019-01-18T01:10:23.256Z,3.37
2019-01-18T01:12:56.057Z,4.13
2019-01-18T01:15:28.960Z,4.23
2019-01-18T01:18:01.858Z,4.00
2019-01-18T01:20:34.766Z,4.57
2019-01-18T01:23:07.778Z,4.23
2019-01-18T01:25:40.681Z,4.00
2019-01-18T01:28:13.652Z,5.57
2019-01-18T01:30:46.721Z,5.47
2019-01-18T01:33:19.643Z,4.30
2019-01-18T01:35:53.268Z,3.70
2019-01-18T01:38:26.060Z,3.10
2019-01-18T01:40:58.924Z,2.47
2019-01-18T01:43:31.703Z,4.70
2019-01-18T01:46:04.533Z,2.20
2019-01-18T01:48:37.476Z,2.87
2019-01-18T01:51:10.547Z,3.20
2019-01-18T01:53:43.496Z,3.77
2019-01-18T01:56:16.348Z,2.90
2019-01-18T01:58:50.009Z,1.90
2019-01-18T02:01:22.813Z,2.07
2019-01-18T02:03:55.770Z,2.33
2019-01-18T02:06:28.907Z,3.03
2019-01-18T02:09:01.808Z,2.50
2019-01-18T02:11:34.751Z,3.20
2019-01-18T02:14:07.852Z,3.10
2019-01-18T02:16:40.759Z,3.03
2019-01-18T02:19:13.692Z,3.00
2019-01-18T02:21:46.681Z,3.00
2019-01-18T02:24:19.879Z,2.90
2019-01-18T02:26:52.815Z,2.50
2019-01-18T02:29:25.706Z,2.73
2019-01-18T02:31:58.564Z,2.60
2019-01-18T02:34:31.479Z,2.33
2019-01-18T02:37:05.958Z,7.00
2019-01-18T02:39:39.504Z,3.23
2019-01-18T02:42:12.527Z,3.13
2019-01-18T02:44:45.537Z,3.37
2019-01-18T02:47:18.385Z,3.07
2019-01-18T02:49:51.256Z,3.50
2019-01-18T02:52:24.037Z,3.27
2019-01-18T02:54:57.062Z,3.07
2019-01-18T02:57:30.097Z,2.97
2019-01-18T03:00:04.927Z,3.00
2019-01-18T03:02:37.181Z,3.07
2019-01-18T03:05:11.444Z,3.00
2019-01-18T03:07:44.962Z,3.23
2019-01-18T03:10:27.223Z,3.33
2019-01-18T03:13:00.416Z,3.10
2019-01-18T03:15:33.321Z,3.00
2019-01-18T03:18:06.306Z,3.43
2019-01-18T03:20:39.234Z,2.83
2019-01-18T03:23:12.149Z,2.87
2019-01-18T03:25:45.936Z,3.23
2019-01-18T03:28:19.422Z,3.20
2019-01-18T03:30:52.253Z,3.73
2019-01-18T03:33:25.097Z,3.47
2019-01-18T03:35:58.343Z,4.73
2019-01-18T03:38:31.411Z,4.63
2019-01-18T03:41:04.389Z,3.50
2019-01-18T03:46:13.533Z,3.47
2019-01-18T03:48:49.426Z,3.17
2019-01-18T03:51:22.416Z,3.40
2019-01-18T03:53:57.057Z,3.37
2019-01-18T03:56:30.508Z,3.37
2019-01-18T03:59:03.712Z,3.30
2019-01-18T04:01:37.084Z,3.87
2019-01-18T04:04:10.414Z,3.47
2019-01-18T04:06:45.003Z,4.00
2019-01-18T04:09:18.614Z,3.20
2019-01-18T04:11:51.814Z,3.13
2019-01-18T04:14:26.242Z,3.43
2019-01-18T04:16:59.648Z,4.00
2019-01-18T04:19:33.477Z,4.47
2019-01-18T04:22:16.520Z,4.87
2019-01-18T04:24:51.048Z,3.57
2019-01-18T04:27:25.340Z,3.30
2019-01-18T04:29:59.757Z,4.00
2019-01-18T04:32:37.315Z,3.17
2019-01-18T04:35:13.159Z,4.17
2019-01-18T04:37:46.434Z,3.07
2019-01-18T04:40:24.824Z,4.30
2019-01-18T04:42:58.035Z,4.37
2019-01-18T04:45:31.168Z,4.07
2019-01-18T04:48:05.784Z,3.77
2019-01-18T04:50:38.930Z,3.60
2019-01-18T04:53:12.166Z,4.80
2019-01-18T04:55:45.155Z,6.27
2019-01-18T04:58:18.054Z,5.63
2019-01-18T05:00:51.255Z,4.67
2019-01-18T05:03:24.335Z,4.50
2019-01-18T05:05:58.738Z,6.03
2019-01-18T05:08:31.824Z,7.50
2019-01-18T05:11:05.227Z,8.10
2019-01-18T05:13:38.275Z,6.67
2019-01-18T05:16:12.219Z,6.23
2019-01-18T05:18:45.414Z,5.40
2019-01-18T05:21:18.412Z,6.07
2019-01-18T05:23:53.627Z,5.77
2019-01-18T05:26:26.887Z,6.53
2019-01-18T05:29:00.022Z,5.67
2019-01-18T05:31:34.700Z,6.00
2019-01-18T05:34:07.706Z,6.37
2019-01-18T05:36:40.926Z,6.80
2019-01-18T05:39:14.227Z,7.60
2019-01-18T05:41:54.427Z,7.87
2019-01-18T05:44:27.610Z,8.07
2019-01-18T05:47:00.885Z,8.47
2019-01-18T05:49:34.174Z,8.50
2019-01-18T05:52:07.769Z,8.30
2019-01-18T05:54:41.589Z,8.83
2019-01-18T05:57:14.984Z,8.17
2019-01-18T05:59:48.012Z,9.47
2019-01-18T06:02:21.174Z,8.07
2019-01-18T06:04:54.652Z,8.63
2019-01-18T06:07:27.717Z,8.03
2019-01-18T06:10:00.783Z,7.87
2019-01-18T06:12:48.776Z,6.73
2019-01-18T06:18:15.259Z,6.23
2019-01-18T06:20:48.265Z,6.73
2019-01-18T06:23:21.429Z,7.13
2019-01-18T06:25:54.654Z,7.60
2019-01-18T06:28:27.777Z,6.33
2019-01-18T06:31:01.797Z,7.17
2019-01-18T06:33:35.218Z,7.10
2019-01-18T06:36:08.598Z,7.27
2019-01-18T06:38:41.606Z,7.60
2019-01-18T06:41:26.920Z,7.70
2019-01-18T06:44:00.077Z,8.23
2019-01-18T06:46:33.188Z,7.93
2019-01-18T06:49:06.773Z,8.53
2019-01-18T06:51:40.175Z,8.90
2019-01-18T06:54:13.350Z,8.90
2019-01-18T06:56:46.448Z,9.20
2019-01-18T06:59:19.577Z,9.40
2019-01-18T07:01:53.013Z,8.53
2019-01-18T07:04:26.400Z,8.87
2019-01-18T07:06:59.483Z,9.23
2019-01-18T07:09:32.661Z,9.03
2019-01-18T07:12:05.964Z,8.70
2019-01-18T07:14:39.170Z,9.07
2019-01-18T07:17:12.156Z,8.90
2019-01-18T07:19:45.186Z,10.07
2019-01-18T07:22:18.263Z,8.93
2019-01-18T07:24:51.259Z,9.03
2019-01-18T07:27:24.281Z,7.70
2019-01-18T07:29:57.615Z,9.47
2019-01-18T07:32:30.845Z,9.57
2019-01-18T07:35:05.645Z,8.13
2019-01-18T07:37:38.816Z,8.60
2019-01-18T07:40:12.412Z,11.13
2019-01-18T07:42:45.481Z,10.67
2019-01-18T07:45:24.664Z,9.73
2019-01-18T07:47:58.258Z,8.27
2019-01-18T07:50:31.817Z,8.57
2019-01-18T07:53:04.920Z,9.53
2019-01-18T07:55:38.116Z,8.57
2019-01-18T07:58:11.118Z,7.77
2019-01-18T08:00:44.216Z,8.03
2019-01-18T08:03:17.493Z,8.20
2019-01-18T08:05:50.721Z,8.00
2019-01-18T08:08:24.048Z,8.97
2019-01-18T08:10:57.397Z,7.40
2019-01-18T08:13:30.801Z,7.43
2019-01-18T08:16:04.236Z,7.80
2019-01-18T08:18:37.441Z,8.20
2019-01-18T08:21:10.575Z,6.90
2019-01-18T08:23:43.549Z,7.13
2019-01-18T08:26:16.751Z,6.40
2019-01-18T08:28:49.674Z,6.67
2019-01-18T08:31:28.701Z,5.90
2019-01-18T08:33:58.180Z,6.40
2019-01-18T08:36:31.426Z,6.70
2019-01-18T08:39:05.583Z,7.43
2019-01-18T08:41:38.710Z,6.97
2019-01-18T08:44:11.821Z,6.17
2019-01-18T08:46:44.980Z,6.43
2019-01-18T08:49:18.154Z,6.93
2019-01-18T08:51:51.336Z,7.47
2019-01-18T08:54:24.537Z,6.83
2019-01-18T08:56:57.794Z,5.90
2019-01-18T08:59:30.885Z,6.27
2019-01-18T09:02:04.112Z,6.07
2019-01-18T09:04:37.027Z,6.57
2019-01-18T09:07:10.442Z,7.17
2019-01-18T09:09:43.499Z,6.03
2019-01-18T09:12:16.551Z,6.87
2019-01-18T09:14:49.699Z,7.53
2019-01-18T09:17:22.829Z,5.90
2019-01-18T09:19:55.865Z,5.83
2019-01-18T09:22:29.090Z,6.93
2019-01-18T09:25:02.166Z,6.43
2019-01-18T09:27:35.262Z,6.07
2019-01-18T09:30:10.221Z,7.13
2019-01-18T09:32:43.314Z,6.03
2019-01-18T09:35:17.055Z,6.37
2019-01-18T09:37:50.189Z,6.97
2019-01-18T09:40:25.687Z,7.00
2019-01-18T09:42:58.877Z,8.37
2019-01-18T09:45:32.142Z,8.97
2019-01-18T09:48:05.234Z,8.30
2019-01-18T09:50:38.676Z,8.03
2019-01-18T09:53:13.448Z,7.63
2019-01-18T09:55:46.542Z,7.20
2019-01-18T09:58:19.676Z,7.87
2019-01-18T10:00:52.786Z,7.27
2019-01-18T10:03:25.949Z,7.10
2019-01-18T10:05:59.133Z,6.80
2019-01-18T10:08:32.383Z,6.30
2019-01-18T10:11:05.471Z,6.53
2019-01-18T10:13:38.539Z,5.87
2019-01-18T10:16:11.618Z,6.33
2019-01-18T10:18:45.169Z,7.23
2019-01-18T10:21:18.247Z,7.30
2019-01-18T10:23:51.374Z,6.30
2019-01-18T10:26:24.490Z,7.13
2019-01-18T10:28:57.716Z,6.17
2019-01-18T10:31:30.828Z,5.47
2019-01-18T10:34:04.006Z,6.07
2019-01-18T10:37:21.783Z,7.77
2019-01-18T10:39:56.215Z,8.37
2019-01-18T10:42:29.327Z,7.10
2019-01-18T10:45:02.234Z,6.63
2019-01-18T10:47:35.316Z,6.90
2019-01-18T10:50:09.999Z,7.20
2019-01-18T10:52:43.134Z,7.30
2019-01-18T10:55:16.345Z,7.07
2019-01-18T10:57:49.325Z,7.30
2019-01-18T11:00:24.867Z,7.97
2019-01-18T11:02:58.114Z,8.80
2019-01-18T11:05:31.248Z,8.33
2019-01-18T11:08:05.388Z,8.97
2019-01-18T11:10:38.815Z,9.37
2019-01-18T11:13:14.480Z,8.03
2019-01-18T11:15:48.595Z,8.10
2019-01-18T11:18:21.717Z,7.90
2019-01-18T11:21:15.145Z,8.33
2019-01-18T11:23:48.265Z,7.43
2019-01-18T11:26:21.391Z,7.13
2019-01-18T11:28:56.582Z,7.20
2019-01-18T11:31:31.493Z,6.70
2019-01-18T11:34:05.232Z,7.33
2019-01-18T11:36:39.346Z,7.83
2019-01-18T11:39:13.101Z,7.67
2019-01-18T11:41:46.310Z,8.40
2019-01-18T11:44:19.601Z,11.10
2019-01-18T11:46:56.785Z,13.23
2019-01-18T11:49:30.370Z,19.67
2019-01-18T11:52:03.701Z,22.47
2019-01-18T11:54:36.867Z,24.80
2019-01-18T11:57:10.274Z,36.97
2019-01-18T11:59:43.302Z,52.07
2019-01-18T12:02:22.053Z,60.57
2019-01-18T12:04:51.053Z,68.40
2019-01-18T12:07:25.199Z,40.47
2019-01-18T12:09:58.353Z,29.57
2019-01-18T12:12:33.380Z,22.70
2019-01-18T12:15:06.633Z,16.57
2019-01-18T12:17:39.869Z,9.00
2019-01-18T12:20:18.210Z,9.00
2019-01-18T12:22:51.410Z,7.27
2019-01-18T12:25:27.461Z,7.57
2019-01-18T12:28:00.931Z,8.70
2019-01-18T12:30:39.777Z,7.00
2019-01-18T12:33:31.437Z,5.93
2019-01-18T12:36:10.178Z,7.67
2019-01-18T12:38:44.846Z,6.10
2019-01-18T12:41:19.099Z,5.77
2019-01-18T12:43:52.411Z,6.20
2019-01-18T12:46:25.732Z,6.73
2019-01-18T12:49:07.926Z,6.50
2019-01-18T12:51:41.059Z,7.60
2019-01-18T12:54:14.258Z,7.57
2019-01-18T12:56:49.606Z,10.57
2019-01-18T12:59:23.489Z,9.47
2019-01-18T13:01:57.621Z,12.37
2019-01-18T13:04:33.065Z,12.93
2019-01-18T13:07:08.691Z,19.53
2019-01-18T13:09:42.854Z,21.07
2019-01-18T13:12:16.211Z,24.77
2019-01-18T13:14:49.451Z,28.53
2019-01-18T13:17:25.239Z,12.20
2019-01-18T13:19:58.446Z,7.70
2019-01-18T13:22:33.742Z,8.33
2019-01-18T13:25:07.738Z,6.90
2019-01-18T13:28:05.424Z,7.23
2019-01-18T13:30:47.909Z,5.83
2019-01-18T13:33:33.459Z,4.47
2019-01-18T13:36:11.982Z,3.93
2019-01-18T13:38:47.346Z,5.47
2019-01-18T13:41:40.062Z,5.87
2019-01-18T13:44:16.399Z,4.73
2019-01-18T13:46:51.705Z,5.30
2019-01-18T13:49:24.921Z,4.70
2019-01-18T13:55:03.679Z,5.20
2019-01-18T14:00:55.905Z,4.30
2019-01-18T14:03:30.361Z,4.03
2019-01-18T14:06:07.730Z,3.60
2019-01-18T14:08:46.397Z,3.70
2019-01-18T14:11:21.106Z,4.03
2019-01-18T14:14:02.709Z,3.93
2019-01-18T14:16:40.628Z,4.57
2019-01-18T14:19:16.680Z,4.60
2019-01-18T14:21:51.958Z,4.03
2019-01-18T14:25:34.881Z,6.80
2019-01-18T14:28:11.286Z,4.43
2019-01-18T14:30:50.469Z,7.23
2019-01-18T14:33:24.203Z,12.70
2019-01-18T14:36:02.677Z,13.53
2019-01-18T14:39:05.715Z,14.43
2019-01-18T14:41:42.302Z,14.73
2019-01-18T14:44:17.465Z,17.30
2019-01-18T14:46:50.682Z,19.40
2019-01-18T14:49:24.135Z,13.60
2019-01-18T14:52:00.469Z,12.90
2019-01-18T14:54:35.917Z,12.13
2019-01-18T14:57:09.818Z,10.10
2019-01-18T14:59:44.388Z,11.80
2019-01-18T15:02:24.966Z,13.83
2019-01-18T15:05:08.425Z,13.50
2019-01-18T15:07:46.380Z,10.90
2019-01-18T15:10:23.593Z,9.03
2019-01-18T15:13:06.897Z,10.53
2019-01-18T15:15:41.658Z,12.90
2019-01-18T15:18:16.775Z,14.73
2019-01-18T15:20:50.125Z,12.87
2019-01-18T15:23:23.346Z,15.27
2019-01-18T15:25:58.592Z,31.47
2019-01-18T15:29:18.965Z,46.90
2019-01-18T15:32:02.588Z,34.30
2019-01-18T15:34:36.127Z,29.00
2019-01-18T15:37:10.238Z,20.20
2019-01-18T15:39:43.479Z,22.57
2019-01-18T15:42:18.424Z,17.80
2019-01-18T15:45:09.919Z,14.63
2019-01-18T15:48:04.341Z,10.00
2019-01-18T15:50:47.871Z,7.37
2019-01-18T15:53:22.181Z,10.00
2019-01-18T15:56:04.821Z,9.20
2019-01-18T15:58:38.466Z,8.07
2019-01-18T16:01:13.750Z,9.20
2019-01-18T16:03:48.991Z,7.77
2019-01-18T16:06:25.211Z,5.53
2019-01-18T16:09:03.482Z,7.33
2019-01-18T16:11:38.145Z,5.30
2019-01-18T16:14:32.823Z,3.67
2019-01-18T16:17:24.611Z,3.10
2019-01-18T16:20:24.103Z,3.40
2019-01-18T16:23:01.489Z,3.67
2019-01-18T16:25:42.554Z,2.83
2019-01-18T16:28:20.367Z,2.97
2019-01-18T16:31:16.372Z,3.13
2019-01-18T16:34:20.690Z,4.10
2019-01-18T16:37:02.545Z,3.20
2019-01-18T16:39:59.852Z,2.80
2019-01-18T16:42:54.043Z,2.97
2019-01-18T16:45:28.542Z,2.83
2019-01-18T16:48:21.119Z,2.80
2019-01-18T16:50:54.865Z,3.50
2019-01-18T16:53:34.480Z,3.80
2019-01-18T16:56:10.503Z,3.83
2019-01-18T16:58:46.133Z,3.47
2019-01-18T17:01:26.827Z,5.03
2019-01-18T17:04:00.221Z,3.20
2019-01-18T17:06:33.454Z,3.00
2019-01-18T17:09:08.903Z,3.80
2019-01-18T17:11:42.477Z,3.33
2019-01-18T17:14:16.419Z,4.10
2019-01-18T17:16:58.127Z,2.60
2019-01-18T17:19:32.421Z,2.97
2019-01-18T17:22:09.404Z,3.37
2019-01-18T17:25:03.442Z,3.10
2019-01-18T17:27:38.800Z,2.60
2019-01-18T17:30:17.420Z,4.20
2019-01-18T17:32:51.937Z,3.47
2019-01-18T17:35:50.554Z,4.67
2019-01-18T17:38:46.625Z,3.67
2019-01-18T17:42:06.736Z,4.27
2019-01-18T17:45:09.696Z,3.53
2019-01-18T17:48:19.337Z,3.23
2019-01-18T17:51:23.814Z,3.33
2019-01-18T17:54:16.281Z,3.43
2019-01-18T17:57:19.226Z,2.87
2019-01-18T18:00:21.475Z,3.03
2019-01-18T18:03:36.474Z,2.70
2019-01-18T18:07:04.391Z,3.47
2019-01-18T18:10:11.690Z,2.70
2019-01-18T18:13:43.352Z,3.03
2019-01-18T18:17:12.621Z,3.37
2019-01-18T18:20:43.425Z,4.10
2019-01-18T18:24:19.879Z,2.33
2019-01-18T18:27:39.095Z,3.47
2019-01-18T18:31:15.791Z,3.53
2019-01-18T18:34:33.961Z,3.83
2019-01-18T18:37:24.928Z,4.63
2019-01-18T18:40:21.550Z,3.90
2019-01-18T18:43:26.141Z,3.27
2019-01-18T18:46:45.857Z,3.90
2019-01-18T18:49:32.497Z,3.40
2019-01-18T18:52:53.952Z,4.17
2019-01-18T18:56:03.722Z,3.65
2019-01-18T18:59:10.432Z,5.33
2019-01-18T19:02:06.545Z,7.10
2019-01-18T19:05:07.856Z,3.30
2019-01-18T19:08:09.641Z,9.35
2019-01-18T19:11:40.215Z,6.30
2019-01-18T19:14:44.486Z,4.37
2019-01-18T19:17:41.445Z,4.87
2019-01-18T19:21:08.423Z,3.10
2019-01-18T19:24:35.342Z,4.95
2019-01-18T19:28:09.362Z,4.30
2019-01-18T19:31:18.302Z,6.00
2019-01-18T19:34:44.475Z,5.30
2019-01-18T19:37:46.394Z,3.05
2019-01-18T19:40:52.661Z,3.52
2019-01-18T19:43:59.842Z,2.92
2019-01-18T19:47:08.580Z,2.70
2019-01-18T19:54:01.345Z,2.80
2019-01-18T19:57:00.292Z,3.00
2019-01-18T20:00:18.397Z,3.02
2019-01-18T20:03:27.568Z,3.30
2019-01-18T20:06:35.653Z,3.37
2019-01-18T20:09:31.823Z,3.00
2019-01-18T20:13:08.567Z,2.62
2019-01-18T20:16:08.082Z,3.12
2019-01-18T20:19:04.013Z,3.63
2019-01-18T20:22:40.667Z,4.10
2019-01-18T20:25:31.255Z,3.83
2019-01-18T20:28:41.326Z,3.13
2019-01-18T20:32:02.990Z,3.03
2019-01-18T20:35:02.968Z,3.35
2019-01-18T20:37:59.885Z,3.55
2019-01-18T20:41:10.162Z,2.83
2019-01-18T20:44:13.017Z,3.10
2019-01-18T20:47:25.348Z,3.30
2019-01-18T20:50:44.881Z,4.50
2019-01-18T20:53:44.053Z,5.97
2019-01-18T20:56:39.883Z,3.37
2019-01-18T20:59:37.623Z,5.77
2019-01-18T21:03:01.886Z,5.63
2019-01-18T21:06:17.057Z,3.13
2019-01-18T21:09:18.298Z,3.67
2019-01-18T21:12:27.364Z,3.93
2019-01-18T21:15:34.950Z,4.63
2019-01-18T21:18:55.349Z,3.60
2019-01-18T21:22:07.854Z,3.13
2019-01-18T21:25:28.135Z,5.53
2019-01-18T21:28:32.367Z,3.02
2019-01-18T21:31:36.762Z,2.80
2019-01-18T21:34:40.392Z,4.37
2019-01-18T21:38:23.989Z,3.97
2019-01-18T21:45:30.438Z,3.73
2019-01-18T21:51:40.772Z,3.70
2019-01-18T21:54:50.774Z,4.30
2019-01-18T21:58:06.676Z,4.10
2019-01-18T22:01:14.726Z,3.30
2019-01-18T22:04:12.860Z,3.80
2019-01-18T22:07:27.615Z,4.20
2019-01-18T22:10:30.110Z,3.60
2019-01-18T22:13:32.677Z,4.07
2019-01-18T22:16:46.856Z,3.83
2019-01-18T22:19:51.851Z,3.97
2019-01-18T22:22:54.843Z,4.00
2019-01-18T22:26:12.723Z,4.03
2019-01-18T22:29:25.221Z,3.03
2019-01-18T22:32:43.248Z,3.30
2019-01-18T22:35:48.928Z,4.13
2019-01-18T22:38:58.142Z,4.70
2019-01-18T22:42:10.462Z,3.20
2019-01-18T22:45:19.316Z,4.40
2019-01-18T22:48:37.637Z,2.97
2019-01-18T22:51:38.701Z,2.70
2019-01-18T22:54:50.098Z,3.70
2019-01-18T22:58:21.094Z,4.07
2019-01-18T23:01:42.671Z,3.70
2019-01-18T23:04:55.741Z,3.33
2019-01-18T23:08:09.809Z,4.13
2019-01-18T23:11:40.223Z,3.23
2019-01-18T23:15:03.161Z,3.50
2019-01-18T23:18:37.073Z,4.90
2019-01-18T23:21:25.054Z,4.00
2019-01-18T23:27:55.345Z,3.87
2019-01-18T23:30:58.433Z,4.03
2019-01-18T23:34:14.710Z,3.60
2019-01-18T23:37:20.781Z,4.20
2019-01-18T23:40:44.904Z,4.93
2019-01-18T23:44:03.235Z,4.40
2019-01-18T23:47:25.550Z,3.27
2019-01-18T23:50:27.620Z,4.03
2019-01-18T23:53:23.615Z,5.00
2019-01-18T23:56:31.406Z,4.70
2019-01-18T23:59:31.808Z,5.40
